Strait of Georgia - north of Nanaimo: Past 24 Hour Conditions

 

South Moresby - 46147

09:00 PM PDT 30 October 2014Buoy position: 51.83N 131.23W
This table is a summary of hourly weather conditions for the past 24 hours.
Date / Time
(PDT)
Wind(knots) Wave height(m) Wave period(s) Pressure(kPa) Air tempC) Water tempC)
30 October 2014
21:00 SW 12 gust 14 3.9 9.0 100.0 10 12
20:00 SW 14 gust 16 3.8 9.0 100.0 10 12
19:00 SSW 16 gust 19 3.9 9.0 99.9 10 12
18:00 SSW 16 gust 18 4.1 9.0 99.9 10 12
17:00 S 16 gust 21 4.2 10.0 99.9 10 12
16:00 SSW 18 gust 23 4.5 9.0 99.8 11 12
15:00 SSW 21 gust 31 4.5 10.0 99.8 11 12
14:00 S 21 gust 25 4.6 10.0 99.8 12 12
13:00 S 21 gust 27 4.1 10.0 99.7 12 12
12:00 SSW 16 gust 19 4.3 10.0 99.7 12 12
11:00 S 16 gust 19 4.3 11.0 99.7 12 12
10:00 S 16 gust 19 4.6 11.0 99.7 12 13
9:00 S 10 gust 14 4.2 10.0 99.6 12 13
8:00 SSE 8 gust 10 3.8 10.0 99.6 12 13
7:00 SSW 12 gust 16 4.2 10.0 99.7 12 13
6:00 S 12 gust 14 4.4 10.0 99.7 11 12
5:00 SSE 18 gust 21 4.2 10.0 99.8 12 12
4:00 SSE 18 gust 21 4.1 9.0 99.9 12 12
3:00 S 19 gust 23 4.2 9.0 100.0 11 12
2:00 S 19 gust 23 4.7 9.0 100.1 11 12
1:00 SSE 31 gust 39 4.5 9.0 100.1 13 12
0:00 SE 31 gust 39 4.0 8.0 100.2 13 12
29 October 2014
23:00 SE 29 gust 37 3.5 8.0 100.3 13 12
22:00 SE 31 gust 37 3.7 7.0 100.4 13 13
21:00 SE 27 gust 35 3.3 7.0 100.5 13 13
 
Map of Pacific - South Coast marine weather areas Tsawwassen Ferry Terminal South Nomad - 46036 Sentry Shoal - 46131 South Brooks - 46132 Halibut Bank - 46146 South Moresby - 46147 South Hecate Strait - 46185 West Sea Otter - 46204 La Perouse Bank - 46206 East Dellwood - 46207 Discovery Island Esquimalt Harbour Kelp Reefs Malahat Race Rocks Lightstation Saturna Island Sheringham Point University of Victoria Victoria Gonzales Victoria Int'l Airport Ballenas Islands Campbell River Airport Comox Airport Entrance Island Fanny Island Nanaimo Airport Port Hardy Airport Sisters Islets Estevan Point Sartine Island Solander Island Tofino Airport Grief Point Powell River Airport Sechelt Cape St.James Bella Bella Airport Bella Coola Airport Cathedral Point Herbert Island Point Atkinson Sand Heads Lightstation Vancouver Harbour Vancouver Int'l Airport West Vancouver Port Alberni Howe Sound - Pam Rocks Squamish Airport